createdAt,value
2017-06-14T00:00:12.059Z,12.59
2017-06-14T00:01:11.752Z,12.49
2017-06-14T00:02:12.046Z,12.49
2017-06-14T00:03:12.049Z,12.47
2017-06-14T00:04:12.033Z,12.46
2017-06-14T00:05:12.028Z,12.42
2017-06-14T00:06:12.022Z,12.5
2017-06-14T00:07:12.018Z,12.49
2017-06-14T00:08:11.707Z,12.42
2017-06-14T00:09:11.706Z,12.52
2017-06-14T00:10:11.694Z,12.49
2017-06-14T00:11:11.685Z,12.42
2017-06-14T00:12:11.983Z,12.45
2017-06-14T00:13:11.978Z,12.35
2017-06-14T00:14:11.971Z,12.37
2017-06-14T00:15:11.964Z,12.41
2017-06-14T00:16:11.653Z,12.35
2017-06-14T00:17:11.951Z,12.45
2017-06-14T00:18:11.943Z,12.37
2017-06-14T00:19:11.945Z,12.42
2017-06-14T00:20:11.931Z,12.34
2017-06-14T00:21:11.927Z,12.37
2017-06-14T00:22:11.919Z,12.24
2017-06-14T00:23:11.918Z,12.37
2017-06-14T00:24:11.905Z,12.29
2017-06-14T00:25:11.898Z,12.29
2017-06-14T00:26:11.895Z,12.29
2017-06-14T00:27:11.886Z,12.14
2017-06-14T00:28:11.882Z,12.2
2017-06-14T00:29:11.872Z,12.17
2017-06-14T00:30:11.872Z,12.2
2017-06-14T00:31:11.866Z,12.17
2017-06-14T00:32:11.856Z,12.24
2017-06-14T00:33:11.848Z,12.13
2017-06-14T00:34:11.839Z,12.1
2017-06-14T00:35:11.837Z,12.1
2017-06-14T00:36:11.829Z,12.01
2017-06-14T00:37:11.518Z,11.98
2017-06-14T00:38:11.511Z,12.04
2017-06-14T00:39:11.811Z,12.02
2017-06-14T00:40:11.498Z,11.99
2017-06-14T00:41:11.798Z,11.96
2017-06-14T00:42:11.185Z,12.09
2017-06-14T00:43:11.783Z,12.12
2017-06-14T00:44:11.471Z,11.99
2017-06-14T00:45:11.770Z,11.99
2017-06-14T00:46:11.763Z,12.02
2017-06-14T00:47:11.453Z,12.13
2017-06-14T00:48:11.748Z,12.07
2017-06-14T00:49:11.444Z,12.04
2017-06-14T00:50:11.434Z,12.04
2017-06-14T00:51:11.727Z,12.02
2017-06-14T00:52:11.722Z,11.94
2017-06-14T00:53:11.411Z,11.99
2017-06-14T00:54:11.404Z,11.96
2017-06-14T00:55:11.701Z,11.98
2017-06-14T00:56:11.391Z,11.99
2017-06-14T00:57:11.402Z,11.91
2017-06-14T00:58:11.377Z,11.88
2017-06-14T00:59:11.372Z,11.82
2017-06-14T01:00:11.671Z,11.82
2017-06-14T01:01:11.664Z,11.76
2017-06-14T01:02:11.655Z,11.8
2017-06-14T01:03:11.649Z,11.82
2017-06-14T01:04:11.338Z,11.79
2017-06-14T01:05:11.635Z,11.79
2017-06-14T01:06:11.326Z,11.78
2017-06-14T01:07:11.016Z,11.79
2017-06-14T01:08:11.311Z,11.76
2017-06-14T01:09:11.313Z,11.79
2017-06-14T01:10:11.600Z,11.82
2017-06-14T01:11:11.594Z,11.76
2017-06-14T01:12:11.588Z,11.75
2017-06-14T01:13:11.581Z,11.67
2017-06-14T01:14:11.573Z,11.72
2017-06-14T01:15:11.607Z,11.78
2017-06-14T01:16:11.563Z,11.76
2017-06-14T01:17:11.555Z,11.67
2017-06-14T01:18:11.549Z,11.67
2017-06-14T01:19:11.544Z,11.64
2017-06-14T01:20:11.532Z,11.69
2017-06-14T01:21:11.526Z,11.75
2017-06-14T01:22:11.520Z,11.72
2017-06-14T01:23:11.211Z,11.76
2017-06-14T01:24:11.201Z,11.76
2017-06-14T01:25:11.505Z,11.76
2017-06-14T01:26:11.492Z,11.72
2017-06-14T01:27:11.485Z,11.7
2017-06-14T01:28:11.484Z,11.67
2017-06-14T01:29:11.168Z,11.76
2017-06-14T01:30:11.464Z,11.76
2017-06-14T01:31:11.457Z,11.65
2017-06-14T01:32:11.449Z,11.75
2017-06-14T01:33:11.447Z,11.64
2017-06-14T01:34:11.131Z,11.55
2017-06-14T01:35:11.432Z,11.57
2017-06-14T01:36:11.424Z,11.52
2017-06-14T01:37:11.420Z,11.49
2017-06-14T01:38:11.407Z,11.52
2017-06-14T01:39:10.796Z,11.52
2017-06-14T01:40:11.394Z,11.46
2017-06-14T01:41:11.390Z,11.42
2017-06-14T01:42:11.077Z,11.47
2017-06-14T01:43:11.373Z,11.42
2017-06-14T01:44:11.366Z,11.36
2017-06-14T01:45:11.358Z,11.4
2017-06-14T01:46:11.352Z,11.33
2017-06-14T01:47:11.346Z,11.42
2017-06-14T01:48:11.038Z,11.35
2017-06-14T01:49:11.333Z,11.35
2017-06-14T01:50:11.021Z,11.22
2017-06-14T01:51:11.317Z,11.28
2017-06-14T01:52:11.008Z,11.29
2017-06-14T01:53:11.302Z,11.24
2017-06-14T01:54:11.296Z,11.22
2017-06-14T01:55:11.290Z,11.27
2017-06-14T01:56:11.285Z,11.21
2017-06-14T01:57:11.277Z,11.22
2017-06-14T01:58:11.267Z,11.21
2017-06-14T01:59:11.261Z,11.22
2017-06-14T02:00:10.949Z,11.17
2017-06-14T02:01:11.248Z,11.18
2017-06-14T02:02:11.241Z,11.18
2017-06-14T02:03:11.239Z,11.24
2017-06-14T02:04:11.224Z,11.17
2017-06-14T02:05:11.220Z,11.17
2017-06-14T02:06:11.209Z,11.17
2017-06-14T02:07:11.203Z,11.24
2017-06-14T02:08:11.195Z,11.24
2017-06-14T02:09:11.189Z,11.15
2017-06-14T02:10:11.184Z,11.17
2017-06-14T02:11:11.178Z,11.15
2017-06-14T02:12:11.167Z,11.07
2017-06-14T02:13:11.159Z,11.11
2017-06-14T02:14:11.156Z,11.09
2017-06-14T02:15:11.145Z,11.09
2017-06-14T02:16:10.839Z,11.06
2017-06-14T02:17:11.133Z,11.09
2017-06-14T02:18:10.819Z,11.04
2017-06-14T02:19:11.119Z,11
2017-06-14T02:20:11.110Z,11.07
2017-06-14T02:21:11.107Z,11.06
2017-06-14T02:22:11.097Z,11.06
2017-06-14T02:23:11.089Z,11.02
2017-06-14T02:24:11.085Z,11.03
2017-06-14T02:25:11.073Z,10.97
2017-06-14T02:26:11.064Z,10.96
2017-06-14T02:27:11.057Z,11
2017-06-14T02:28:11.051Z,10.97
2017-06-14T02:29:11.044Z,10.96
2017-06-14T02:30:11.041Z,10.91
2017-06-14T02:31:11.030Z,10.89
2017-06-14T02:32:11.025Z,10.91
2017-06-14T02:33:11.015Z,10.89
2017-06-14T02:34:11.006Z,10.91
2017-06-14T02:35:11.004Z,10.88
2017-06-14T02:36:10.992Z,10.92
2017-06-14T02:37:10.986Z,10.84
2017-06-14T02:38:10.991Z,10.97
2017-06-14T02:39:10.973Z,10.91
2017-06-14T02:40:10.969Z,10.89
2017-06-14T02:41:10.956Z,10.84
2017-06-14T02:42:10.958Z,10.91
2017-06-14T02:43:10.942Z,10.86
2017-06-14T02:44:10.934Z,10.96
2017-06-14T02:45:10.926Z,10.94
2017-06-14T02:46:10.616Z,10.89
2017-06-14T02:47:10.917Z,10.92
2017-06-14T02:48:10.904Z,10.84
2017-06-14T02:49:10.903Z,10.94
2017-06-14T02:50:10.891Z,10.96
2017-06-14T02:51:10.915Z,10.89
2017-06-14T02:52:10.874Z,10.89
2017-06-14T02:53:10.869Z,10.94
2017-06-14T02:54:10.860Z,10.92
2017-06-14T02:55:10.853Z,10.85
2017-06-14T02:56:10.847Z,10.88
2017-06-14T02:57:10.838Z,10.94
2017-06-14T02:58:10.831Z,10.96
2017-06-14T02:59:10.822Z,10.91
2017-06-14T03:00:10.518Z,10.99
2017-06-14T03:01:10.508Z,10.96
2017-06-14T03:02:10.803Z,11.03
2017-06-14T03:03:10.794Z,10.92
2017-06-14T03:04:10.787Z,11.02
2017-06-14T03:05:10.780Z,11.06
2017-06-14T03:06:10.467Z,10.99
2017-06-14T03:07:10.768Z,11.02
2017-06-14T03:08:10.761Z,11.03
2017-06-14T03:09:10.753Z,11.06
2017-06-14T03:10:10.743Z,11.03
2017-06-14T03:11:10.737Z,11.03
2017-06-14T03:12:10.729Z,11.11
2017-06-14T03:13:10.723Z,11.07
2017-06-14T03:14:10.713Z,11.15
2017-06-14T03:15:10.706Z,11.17
2017-06-14T03:16:10.700Z,11.21
2017-06-14T03:17:10.693Z,11.28
2017-06-14T03:18:10.691Z,11.24
2017-06-14T03:19:10.677Z,11.32
2017-06-14T03:20:10.668Z,11.29
2017-06-14T03:21:10.661Z,11.29
2017-06-14T03:22:10.690Z,11.4
2017-06-14T03:23:10.649Z,11.54
2017-06-14T03:24:10.644Z,11.79
2017-06-14T03:25:10.633Z,11.88
2017-06-14T03:26:10.631Z,11.99
2017-06-14T03:27:10.621Z,12.23
2017-06-14T03:28:10.313Z,12.38
2017-06-14T03:29:10.607Z,12.47
2017-06-14T03:30:10.298Z,12.65
2017-06-14T03:31:10.595Z,12.9
2017-06-14T03:32:10.590Z,12.97
2017-06-14T03:33:10.585Z,13.29
2017-06-14T03:34:10.274Z,13.44
2017-06-14T03:35:10.572Z,13.6
2017-06-14T03:36:10.264Z,13.85
2017-06-14T03:37:10.573Z,14.24
2017-06-14T03:38:10.554Z,14.45
2017-06-14T03:39:10.549Z,14.61
2017-06-14T03:40:10.543Z,14.94
2017-06-14T03:41:10.539Z,15.25
2017-06-14T03:42:10.535Z,15.51
2017-06-14T03:43:10.533Z,15.8
2017-06-14T03:44:10.527Z,16.04
2017-06-14T03:45:10.521Z,16.45
2017-06-14T03:46:10.525Z,16.75
2017-06-14T03:47:10.519Z,17.04
2017-06-14T03:48:10.511Z,17.26
2017-06-14T03:49:10.509Z,17.58
2017-06-14T03:50:10.202Z,17.84
2017-06-14T03:51:10.207Z,18.08
2017-06-14T03:52:10.502Z,18.29
2017-06-14T03:53:10.194Z,18.57
2017-06-14T03:54:10.193Z,18.81
2017-06-14T03:55:10.495Z,19.02
2017-06-14T03:56:10.494Z,19.33
2017-06-14T03:57:10.490Z,19.61
2017-06-14T03:58:10.491Z,19.87
2017-06-14T03:59:10.489Z,20.02
2017-06-14T04:00:10.187Z,20.26
2017-06-14T04:01:10.490Z,20.54
2017-06-14T04:02:10.486Z,20.7
2017-06-14T04:03:10.486Z,20.92
2017-06-14T04:04:10.183Z,21.14
2017-06-14T04:05:10.184Z,21.17
2017-06-14T04:06:10.485Z,21.37
2017-06-14T04:07:10.489Z,21.5
2017-06-14T04:08:10.181Z,21.79
2017-06-14T04:09:10.487Z,21.9
2017-06-14T04:10:10.488Z,22.12
2017-06-14T04:11:10.490Z,22.37
2017-06-14T04:12:10.190Z,22.47
2017-06-14T04:13:10.493Z,22.62
2017-06-14T04:14:10.527Z,22.85
2017-06-14T04:15:10.496Z,22.98
2017-06-14T04:16:10.197Z,23.27
2017-06-14T04:17:10.504Z,23.55
2017-06-14T04:18:10.529Z,23.69
2017-06-14T04:19:10.507Z,23.97
2017-06-14T04:20:10.514Z,24.09
2017-06-14T04:21:10.515Z,24.22
2017-06-14T04:22:10.215Z,24.42
2017-06-14T04:23:10.518Z,24.67
2017-06-14T04:24:10.526Z,24.87
2017-06-14T04:25:10.530Z,25.15
2017-06-14T04:26:10.531Z,25.33
2017-06-14T04:27:10.537Z,25.69
2017-06-14T04:28:10.540Z,25.8
2017-06-14T04:29:10.549Z,25.9
2017-06-14T04:30:10.551Z,26.13
2017-06-14T04:31:10.253Z,26.29
2017-06-14T04:32:10.563Z,26.4
2017-06-14T04:33:10.567Z,26.6
2017-06-14T04:34:10.574Z,26.82
2017-06-14T04:35:10.581Z,26.94
2017-06-14T04:36:10.585Z,27
2017-06-14T04:37:10.590Z,27.03
2017-06-14T04:38:10.600Z,27.13
2017-06-14T04:39:10.605Z,27.29
2017-06-14T04:40:10.615Z,27.34
2017-06-14T04:41:10.618Z,27.46
2017-06-14T04:42:10.323Z,27.65
2017-06-14T04:43:10.634Z,27.78
2017-06-14T04:44:10.672Z,27.99
2017-06-14T04:45:10.648Z,28.12
2017-06-14T04:46:10.656Z,28.19
2017-06-14T04:47:10.663Z,28.34
2017-06-14T04:48:10.669Z,28.43
2017-06-14T04:49:10.679Z,28.62
2017-06-14T04:50:10.384Z,28.77
2017-06-14T04:51:10.694Z,28.9
2017-06-14T04:52:10.701Z,29.11
2017-06-14T04:53:10.710Z,29.15
2017-06-14T04:54:10.416Z,29.36
2017-06-14T04:55:10.728Z,29.43
2017-06-14T04:56:10.736Z,29.58
2017-06-14T04:57:10.745Z,29.68
2017-06-14T04:58:10.752Z,29.82
2017-06-14T04:59:10.762Z,29.9
2017-06-14T05:00:10.778Z,29.95
2017-06-14T05:01:10.785Z,30.05
2017-06-14T05:02:13.846Z,30.11
2017-06-14T05:03:10.799Z,30.24
2017-06-14T05:04:10.811Z,30.32
2017-06-14T05:05:10.818Z,30.38
2017-06-14T05:06:10.829Z,30.47
2017-06-14T05:07:10.533Z,30.46
2017-06-14T05:08:10.847Z,30.65
2017-06-14T05:09:10.858Z,30.75
2017-06-14T05:10:10.867Z,30.88
2017-06-14T05:11:10.880Z,31.01
2017-06-14T05:12:10.583Z,31.14
2017-06-14T05:13:10.896Z,31.16
2017-06-14T05:14:10.904Z,31.21
2017-06-14T05:15:10.922Z,31.23
2017-06-14T05:16:11.229Z,31.25
2017-06-14T05:17:10.633Z,31.26
2017-06-14T05:18:10.947Z,31.32
2017-06-14T05:19:10.955Z,31.44
2017-06-14T05:20:10.969Z,31.5
2017-06-14T05:21:10.976Z,31.51
2017-06-14T05:22:10.990Z,31.61
2017-06-14T05:23:11.004Z,31.65
2017-06-14T05:24:11.012Z,31.75
2017-06-14T05:25:11.023Z,31.92
2017-06-14T05:26:10.729Z,32.21
2017-06-14T05:27:11.046Z,32.29
2017-06-14T05:28:11.054Z,32.26
2017-06-14T05:29:11.066Z,32.29
2017-06-14T05:30:11.078Z,32.22
2017-06-14T05:31:11.090Z,32.38
2017-06-14T05:32:11.105Z,32.37
2017-06-14T05:33:11.110Z,32.35
2017-06-14T05:34:11.121Z,32.47
2017-06-14T05:35:11.135Z,32.6
2017-06-14T05:36:10.840Z,32.65
2017-06-14T05:37:11.159Z,32.79
2017-06-14T05:38:11.169Z,32.78
2017-06-14T05:39:11.180Z,32.88
2017-06-14T05:40:10.889Z,32.97
2017-06-14T05:41:11.204Z,33.11
2017-06-14T05:42:11.217Z,33.23
2017-06-14T05:43:11.229Z,33.38
2017-06-14T05:44:11.242Z,33.47
2017-06-14T05:45:11.252Z,33.6
2017-06-14T05:46:11.266Z,33.51
2017-06-14T05:47:11.277Z,33.6
2017-06-14T05:48:11.290Z,33.63
2017-06-14T05:49:11.306Z,33.81
2017-06-14T05:50:11.016Z,33.95
2017-06-14T05:51:11.330Z,34.02
2017-06-14T05:52:11.039Z,34.08
2017-06-14T05:53:11.356Z,34.12
2017-06-14T05:54:11.069Z,34.19
2017-06-14T05:55:11.386Z,34.21
2017-06-14T05:56:11.397Z,34.28
2017-06-14T05:57:11.409Z,34.12
2017-06-14T05:58:11.119Z,33.82
2017-06-14T05:59:11.439Z,33.71
2017-06-14T06:00:11.146Z,33.6
2017-06-14T06:01:11.464Z,33.6
2017-06-14T06:02:11.475Z,33.47
2017-06-14T06:03:11.496Z,33.47
2017-06-14T06:04:11.503Z,33.5
2017-06-14T06:05:11.516Z,33.49
2017-06-14T06:06:11.533Z,33.32
2017-06-14T06:07:11.544Z,33.19
2017-06-14T06:08:11.555Z,33.14
2017-06-14T06:09:11.569Z,33.19
2017-06-14T06:10:11.583Z,33.31
2017-06-14T06:11:11.594Z,33.31
2017-06-14T06:12:11.608Z,33.31
2017-06-14T06:13:11.320Z,33.16
2017-06-14T06:14:11.634Z,33.09
2017-06-14T06:15:11.647Z,32.72
2017-06-14T06:16:11.662Z,32.62
2017-06-14T06:17:11.674Z,32.69
2017-06-14T06:18:11.695Z,32.79
2017-06-14T06:19:11.699Z,32.93
2017-06-14T06:20:11.717Z,33.04
2017-06-14T06:21:11.725Z,33.14
2017-06-14T06:22:11.740Z,33.15
2017-06-14T06:23:11.754Z,33.06
2017-06-14T06:24:11.465Z,33.11
2017-06-14T06:25:11.780Z,33.15
2017-06-14T06:26:11.797Z,33.32
2017-06-14T06:27:11.809Z,33.53
2017-06-14T06:28:11.821Z,33.44
2017-06-14T06:29:11.836Z,33.16
2017-06-14T06:30:11.852Z,33.07
2017-06-14T06:31:11.865Z,33.09
2017-06-14T06:32:11.883Z,33.22
2017-06-14T06:33:11.901Z,33.32
2017-06-14T06:34:11.908Z,33.39
2017-06-14T06:35:11.929Z,33.31
2017-06-14T06:36:11.939Z,33.38
2017-06-14T06:37:11.957Z,33.31
2017-06-14T06:38:11.972Z,33.28
2017-06-14T06:39:11.988Z,33.19
2017-06-14T06:40:11.702Z,33.29
2017-06-14T06:42:13.246Z,33.45
2017-06-14T06:43:12.052Z,33.56
2017-06-14T06:44:12.065Z,33.81
2017-06-14T06:45:12.081Z,33.81
2017-06-14T06:46:11.793Z,33.81
2017-06-14T06:47:12.112Z,34.06
2017-06-14T06:48:12.126Z,34.27
2017-06-14T06:49:11.839Z,34.62
2017-06-14T06:50:11.856Z,34.78
2017-06-14T06:51:12.174Z,35.1
2017-06-14T06:52:12.190Z,35.44
2017-06-14T06:53:12.208Z,35.65
2017-06-14T06:54:12.225Z,36
2017-06-14T06:55:12.246Z,36.13
2017-06-14T06:56:11.954Z,36.35
2017-06-14T06:57:12.276Z,36.49
2017-06-14T06:58:12.300Z,36.56
2017-06-14T06:59:12.309Z,36.54
2017-06-14T07:00:12.327Z,36.38
2017-06-14T07:01:12.344Z,36.32
2017-06-14T07:02:12.361Z,36.38
2017-06-14T07:03:12.378Z,36.5
2017-06-14T07:04:12.397Z,36.62
2017-06-14T07:05:12.415Z,36.75
2017-06-14T07:06:12.431Z,36.94
2017-06-14T07:07:12.450Z,37.03
2017-06-14T07:08:12.468Z,37.22
2017-06-14T07:09:12.484Z,37.32
2017-06-14T07:10:12.509Z,37.4
2017-06-14T07:11:12.520Z,37.31
2017-06-14T07:12:12.543Z,36.88
2017-06-14T07:13:12.557Z,36.73
2017-06-14T07:14:12.578Z,36.64
2017-06-14T07:15:12.594Z,36.5
2017-06-14T07:16:12.311Z,36.65
2017-06-14T07:17:12.634Z,36.76
2017-06-14T07:18:12.346Z,36.91
2017-06-14T07:19:12.367Z,36.84
2017-06-14T07:20:12.690Z,36.62
2017-06-14T07:21:12.403Z,36.08
2017-06-14T07:22:12.724Z,35.53
2017-06-14T07:23:12.443Z,35.21
2017-06-14T07:24:12.460Z,35
2017-06-14T07:25:12.478Z,35.07
2017-06-14T07:26:12.499Z,35.29
2017-06-14T07:27:12.819Z,35.77
2017-06-14T07:28:12.837Z,36.23
2017-06-14T07:29:12.853Z,36.6
2017-06-14T07:30:12.898Z,37.15
2017-06-14T07:31:12.892Z,37.22
2017-06-14T07:32:12.606Z,37
2017-06-14T07:33:12.930Z,36.95
2017-06-14T07:34:12.641Z,37.02
2017-06-14T07:35:12.964Z,37.09
2017-06-14T07:36:12.982Z,37.03
2017-06-14T07:37:12.999Z,36.68
2017-06-14T07:38:13.018Z,36.51
2017-06-14T07:39:13.037Z,36.6
2017-06-14T07:40:12.750Z,36.9
2017-06-14T07:41:13.079Z,37.27
2017-06-14T07:42:12.788Z,37.47
2017-06-14T07:43:13.109Z,37.72
2017-06-14T07:44:13.125Z,37.55
2017-06-14T07:45:13.144Z,37.17
2017-06-14T07:46:13.168Z,36.9
2017-06-14T07:47:13.483Z,36.8
2017-06-14T07:48:13.200Z,36.66
2017-06-14T07:49:13.217Z,36.59
2017-06-14T07:50:13.233Z,36.65
2017-06-14T07:51:13.251Z,36.76
2017-06-14T07:52:13.272Z,37.13
2017-06-14T07:53:13.295Z,37.4
2017-06-14T07:54:13.304Z,37.55
2017-06-14T07:55:13.323Z,37.66
2017-06-14T07:56:13.344Z,37.36
2017-06-14T07:57:13.364Z,37.1
2017-06-14T07:58:13.381Z,36.81
2017-06-14T07:59:13.396Z,36.31
2017-06-14T08:00:13.415Z,35.93
2017-06-14T08:01:13.132Z,35.37
2017-06-14T08:02:13.449Z,34.84
2017-06-14T08:03:13.471Z,34.7
2017-06-14T08:04:13.486Z,34.92
2017-06-14T08:05:13.503Z,35.22
2017-06-14T08:06:13.523Z,35.53
2017-06-14T08:07:13.538Z,35.87
2017-06-14T08:08:13.255Z,36.08
2017-06-14T08:09:13.579Z,36.34
2017-06-14T08:10:13.592Z,36.17
2017-06-14T08:11:13.611Z,36.13
2017-06-14T08:12:13.325Z,36
2017-06-14T08:13:13.646Z,35.55
2017-06-14T08:14:13.660Z,34.61
2017-06-14T08:15:13.680Z,33.84
2017-06-14T08:16:13.390Z,33.16
2017-06-14T08:17:13.909Z,32.57
2017-06-14T08:18:13.421Z,32.21
2017-06-14T08:19:13.736Z,31.93
2017-06-14T08:20:13.755Z,31.78
2017-06-14T08:21:13.767Z,31.56
2017-06-14T08:22:13.784Z,31.32
2017-06-14T08:23:13.792Z,30.86
2017-06-14T08:24:13.807Z,30.61
2017-06-14T08:25:13.817Z,30.49
2017-06-14T08:26:13.829Z,30.45
2017-06-14T08:29:13.861Z,30.82
2017-06-14T08:30:13.572Z,30.95
2017-06-14T08:31:13.889Z,31.16
2017-06-14T08:32:13.897Z,31.38
2017-06-14T08:33:13.911Z,31.54
2017-06-14T08:34:13.919Z,31.54
2017-06-14T08:35:13.931Z,31.38
2017-06-14T08:36:13.949Z,31.23
2017-06-14T08:37:13.955Z,31.07
2017-06-14T08:38:13.965Z,30.99
2017-06-14T08:39:13.977Z,30.82
2017-06-14T08:40:13.992Z,30.6
2017-06-14T08:41:13.997Z,30.47
2017-06-14T08:42:13.703Z,30.37
2017-06-14T08:43:13.718Z,30.31
2017-06-14T08:44:13.725Z,30.04
2017-06-14T08:45:14.059Z,29.94
2017-06-14T08:46:14.062Z,29.92
2017-06-14T08:47:13.756Z,29.8
2017-06-14T08:48:14.069Z,29.68
2017-06-14T08:49:14.079Z,29.31
2017-06-14T08:50:13.787Z,29.26
2017-06-14T08:51:14.113Z,29.02
2017-06-14T08:52:14.142Z,28.9
2017-06-14T08:53:14.114Z,28.67
2017-06-14T08:54:13.825Z,28.58
2017-06-14T08:55:13.832Z,28.48
2017-06-14T08:56:13.841Z,28.18
2017-06-14T08:57:13.848Z,28.12
2017-06-14T08:58:13.857Z,27.84
2017-06-14T08:59:14.167Z,27.46
2017-06-14T09:00:14.186Z,27.29
2017-06-14T09:01:14.187Z,27.06
2017-06-14T09:02:14.196Z,27
2017-06-14T09:03:13.897Z,26.99
2017-06-14T09:04:13.902Z,26.95
2017-06-14T09:05:13.913Z,26.95
2017-06-14T09:06:14.221Z,26.89
2017-06-14T09:07:13.927Z,26.91
2017-06-14T09:08:14.237Z,26.82
2017-06-14T09:09:14.244Z,26.67
2017-06-14T09:10:14.254Z,26.39
2017-06-14T09:11:13.953Z,26.12
2017-06-14T09:12:13.958Z,26.01
2017-06-14T09:13:14.272Z,26.06
2017-06-14T09:14:14.280Z,26.01
2017-06-14T09:15:14.626Z,26.02
2017-06-14T09:16:13.984Z,25.98
2017-06-14T09:17:14.291Z,26.05
2017-06-14T09:18:14.297Z,26.09
2017-06-14T09:19:14.301Z,25.95
2017-06-14T09:20:14.312Z,25.85
2017-06-14T09:21:14.315Z,25.64
2017-06-14T09:22:14.319Z,25.47
2017-06-14T09:23:14.330Z,25.17
2017-06-14T09:24:14.027Z,25.02
2017-06-14T09:25:14.340Z,24.76
2017-06-14T09:26:14.039Z,24.73
2017-06-14T09:27:14.057Z,24.84
2017-06-14T09:28:14.350Z,24.84
2017-06-14T09:29:14.078Z,25
2017-06-14T09:30:14.375Z,24.95
2017-06-14T09:31:14.365Z,24.93
2017-06-14T09:32:14.371Z,24.85
2017-06-14T09:33:14.379Z,24.71
2017-06-14T09:34:14.380Z,24.49
2017-06-14T09:35:14.384Z,24.45
2017-06-14T09:36:14.299Z,24.32
2017-06-14T09:37:14.392Z,24.13
2017-06-14T09:38:14.401Z,24.08
2017-06-14T09:39:14.402Z,24.13
2017-06-14T09:40:14.407Z,24.05
2017-06-14T09:41:14.410Z,24.02
2017-06-14T09:42:14.416Z,24.05
2017-06-14T09:43:14.419Z,24.09
2017-06-14T09:44:14.436Z,24.06
2017-06-14T09:45:14.427Z,24.06
2017-06-14T09:46:14.445Z,23.9
2017-06-14T09:47:14.444Z,23.79
2017-06-14T09:48:14.435Z,23.78
2017-06-14T09:49:14.443Z,23.83
2017-06-14T09:50:14.445Z,23.91
2017-06-14T09:51:14.448Z,23.97
2017-06-14T09:52:14.146Z,24.08
2017-06-14T09:53:14.458Z,24.18
2017-06-14T09:54:14.459Z,24.32
2017-06-14T09:55:14.464Z,24.39
2017-06-14T09:56:14.463Z,24.55
2017-06-14T09:57:14.468Z,24.57
2017-06-14T09:58:14.472Z,24.62
2017-06-14T09:59:14.472Z,24.67
2017-06-14T10:00:14.171Z,24.62
2017-06-14T10:01:14.480Z,24.55
2017-06-14T10:02:15.899Z,24.5
2017-06-14T10:03:15.699Z,24.49
2017-06-14T10:04:14.383Z,24.5
2017-06-14T10:08:14.504Z,24.69
2017-06-14T10:09:14.510Z,24.67
2017-06-14T10:10:14.510Z,24.64
2017-06-14T10:11:14.511Z,24.68
2017-06-14T10:12:14.531Z,24.62
2017-06-14T10:13:14.521Z,24.65
2017-06-14T10:14:14.522Z,24.71
2017-06-14T10:15:14.525Z,24.71
2017-06-14T10:16:14.528Z,24.78
2017-06-14T10:17:14.531Z,24.76
2017-06-14T10:18:14.534Z,24.78
2017-06-14T10:19:14.539Z,24.73
2017-06-14T10:20:14.542Z,24.73
2017-06-14T10:21:14.547Z,24.71
2017-06-14T10:22:14.550Z,24.68
2017-06-14T10:23:14.552Z,24.45
2017-06-14T10:24:14.554Z,24.46
2017-06-14T10:25:14.558Z,24.47
2017-06-14T10:26:14.563Z,24.53
2017-06-14T10:27:13.958Z,24.64
2017-06-14T10:28:14.571Z,24.69
2017-06-14T10:29:14.572Z,24.67
2017-06-14T10:30:14.575Z,24.77
2017-06-14T10:31:14.617Z,24.78
2017-06-14T10:32:14.582Z,24.76
2017-06-14T10:33:14.588Z,24.9
2017-06-14T10:34:14.588Z,24.9
2017-06-14T10:35:14.593Z,24.8
2017-06-14T10:36:14.597Z,24.8
2017-06-14T10:37:14.598Z,24.47
2017-06-14T10:38:14.603Z,24.37
2017-06-14T10:39:14.606Z,24.12
2017-06-14T10:40:14.610Z,24.03
2017-06-14T10:41:14.621Z,23.8
2017-06-14T10:42:14.617Z,23.63
2017-06-14T10:43:14.616Z,23.63
2017-06-14T10:44:14.626Z,23.51
2017-06-14T10:45:14.627Z,23.63
2017-06-14T10:46:14.323Z,23.7
2017-06-14T10:47:14.635Z,23.72
2017-06-14T10:48:14.632Z,23.72
2017-06-14T10:49:14.638Z,23.66
2017-06-14T10:50:14.652Z,23.72
2017-06-14T10:51:14.642Z,23.63
2017-06-14T10:52:14.337Z,23.58
2017-06-14T10:53:14.344Z,23.54
2017-06-14T10:54:14.644Z,23.57
2017-06-14T10:55:14.652Z,23.54
2017-06-14T10:56:14.649Z,23.57
2017-06-14T10:57:14.654Z,23.55
2017-06-14T10:58:14.351Z,23.55
2017-06-14T10:59:14.656Z,23.48
2017-06-14T11:00:14.665Z,23.48
2017-06-14T11:01:14.359Z,23.46
2017-06-14T11:02:14.663Z,23.47
2017-06-14T11:03:14.666Z,23.38
2017-06-14T11:04:14.668Z,23.31
2017-06-14T11:05:14.668Z,23.2
2017-06-14T11:06:14.670Z,23.31
2017-06-14T11:07:14.675Z,23.17
2017-06-14T11:08:14.672Z,23.16
2017-06-14T11:09:14.677Z,23.09
2017-06-14T11:10:14.376Z,23.12
2017-06-14T11:11:14.679Z,23.12
2017-06-14T11:12:14.681Z,23.09
2017-06-14T11:13:14.685Z,23.15
2017-06-14T11:14:14.580Z,23.27
2017-06-14T11:15:14.691Z,23.35
2017-06-14T11:16:14.386Z,23.38
2017-06-14T11:17:14.689Z,23.4
2017-06-14T11:18:14.691Z,23.43
2017-06-14T11:19:14.691Z,23.39
2017-06-14T11:20:14.695Z,23.33
2017-06-14T11:21:14.694Z,23.35
2017-06-14T11:22:14.699Z,23.47
2017-06-14T11:23:14.699Z,23.51
2017-06-14T11:24:14.703Z,23.6
2017-06-14T11:25:14.704Z,23.68
2017-06-14T11:26:14.704Z,23.78
2017-06-14T11:27:14.706Z,23.8
2017-06-14T11:28:14.707Z,24.02
2017-06-14T11:29:14.710Z,23.95
2017-06-14T11:30:14.711Z,23.98
2017-06-14T11:31:14.717Z,23.87
2017-06-14T11:32:14.717Z,23.76
2017-06-14T11:33:14.717Z,23.8
2017-06-14T11:34:14.720Z,23.69
2017-06-14T11:35:14.723Z,23.75
2017-06-14T11:36:14.723Z,23.9
2017-06-14T11:37:14.729Z,23.84
2017-06-14T11:38:14.734Z,23.98
2017-06-14T11:39:14.740Z,23.93
2017-06-14T11:40:14.735Z,24.05
2017-06-14T11:41:14.733Z,24.08
2017-06-14T11:42:14.736Z,23.97
2017-06-14T11:43:14.438Z,23.75
2017-06-14T11:44:14.742Z,23.39
2017-06-14T11:45:14.745Z,23.15
2017-06-14T11:46:14.746Z,23
2017-06-14T11:47:14.747Z,22.91
2017-06-14T11:48:14.446Z,22.8
2017-06-14T11:49:14.754Z,22.62
2017-06-14T11:50:14.754Z,22.47
2017-06-14T11:51:14.754Z,22.49
2017-06-14T11:52:14.756Z,22.55
2017-06-14T11:53:14.759Z,22.46
2017-06-14T11:54:14.456Z,22.55
2017-06-14T11:55:14.764Z,22.67
2017-06-14T11:56:14.763Z,22.61
2017-06-14T11:57:14.767Z,22.7
2017-06-14T11:58:14.798Z,22.73
2017-06-14T11:59:14.765Z,22.75
2017-06-14T12:00:14.782Z,22.7
2017-06-14T12:01:14.772Z,22.64
2017-06-14T12:02:14.771Z,22.62
2017-06-14T12:03:14.472Z,22.62
2017-06-14T12:04:14.777Z,22.62
2017-06-14T12:05:14.774Z,22.61
2017-06-14T12:06:14.472Z,22.77
2017-06-14T12:07:14.780Z,22.86
2017-06-14T12:08:14.780Z,22.9
2017-06-14T12:09:14.786Z,22.98
2017-06-14T12:10:14.783Z,23.1
2017-06-14T12:11:14.785Z,23.19
2017-06-14T12:12:14.786Z,23.25
2017-06-14T12:13:14.494Z,23.25
2017-06-14T12:14:14.788Z,23.2
2017-06-14T12:15:14.790Z,23.05
2017-06-14T12:16:14.790Z,23.16
2017-06-14T12:17:14.791Z,23.17
2017-06-14T12:18:14.792Z,23.2
2017-06-14T12:19:14.794Z,23.42
2017-06-14T12:20:14.797Z,23.53
2017-06-14T12:21:14.799Z,23.58
2017-06-14T12:22:14.798Z,23.63
2017-06-14T12:23:14.803Z,23.69
2017-06-14T12:24:14.802Z,23.79
2017-06-14T12:25:14.804Z,23.88
2017-06-14T12:26:14.807Z,23.98
2017-06-14T12:27:14.807Z,24.05
2017-06-14T12:28:14.814Z,24.16
2017-06-14T12:29:14.809Z,24.35
2017-06-14T12:30:14.510Z,24.61
2017-06-14T12:31:14.815Z,24.83
2017-06-14T12:32:14.818Z,25.02
2017-06-14T12:33:14.816Z,25.24
2017-06-14T12:34:14.823Z,25.3
2017-06-14T12:35:14.824Z,25.47
2017-06-14T12:36:14.828Z,25.62
2017-06-14T12:37:14.827Z,25.64
2017-06-14T12:38:14.831Z,25.7
2017-06-14T12:39:15.042Z,25.77
2017-06-14T12:40:14.835Z,25.88
2017-06-14T12:41:14.838Z,25.8
2017-06-14T12:42:14.844Z,25.7
2017-06-14T12:43:14.851Z,25.54
2017-06-14T12:44:14.851Z,25.45
2017-06-14T12:45:14.855Z,25.15
2017-06-14T12:46:14.859Z,25.06
2017-06-14T12:47:14.884Z,24.93
2017-06-14T12:48:14.865Z,24.71
2017-06-14T12:49:14.867Z,24.6
2017-06-14T12:50:14.872Z,24.52
2017-06-14T12:51:14.871Z,24.37
2017-06-14T12:52:14.879Z,24.22
2017-06-14T12:53:14.875Z,24.06
2017-06-14T12:54:14.879Z,23.94
2017-06-14T12:55:14.880Z,23.78
2017-06-14T12:56:14.885Z,23.76
2017-06-14T12:57:14.893Z,23.79
2017-06-14T12:58:14.584Z,23.68
2017-06-14T12:59:14.889Z,23.65
2017-06-14T13:00:14.892Z,23.65
2017-06-14T13:01:14.589Z,23.53